Time,TemperatureF,DewpointF,PressureIn,WindDirection,WindDirectionDegrees,WindSpeedMPH,WindSpeedGustMPH,Humidity,HourlyPrecipIn,Conditions,Clouds,dailyrainin,SoftwareType,DateUTC
2013-02-25 00:08:00,59.9,58.5,29.57,South,180,1.1,-999.0,95,-99.99,,,0.00,Acu-Link.com,2013-02-25 06:08:00,
2013-02-25 00:23:00,59.9,58.5,29.57,NE,45,2.2,-999.0,95,-99.99,,,0.00,Acu-Link.com,2013-02-25 06:23:00,
2013-02-25 00:38:00,59.9,58.5,29.57,South,180,1.1,-999.0,95,-99.99,,,0.00,Acu-Link.com,2013-02-25 06:38:00,
2013-02-25 00:54:00,59.9,58.8,29.57,ENE,67,0.0,-999.0,96,-99.99,,,0.00,Acu-Link.com,2013-02-25 06:54:00,
2013-02-25 01:09:00,59.9,58.8,29.57,ESE,112,2.2,-999.0,96,-99.99,,,0.00,Acu-Link.com,2013-02-25 07:09:00,
2013-02-25 01:24:00,59.9,59.0,29.56,ESE,112,0.0,-999.0,97,-99.99,,,0.00,Acu-Link.com,2013-02-25 07:24:00,
2013-02-25 01:40:00,59.9,59.0,29.56,ESE,112,3.1,-999.0,97,-99.99,,,0.00,Acu-Link.com,2013-02-25 07:40:00,
2013-02-25 01:55:00,59.9,59.0,29.56,West,270,0.0,-999.0,97,-99.99,,,0.00,Acu-Link.com,2013-02-25 07:55:00,
2013-02-25 02:10:00,59.9,59.3,29.54,SE,135,1.1,-999.0,98,-99.99,,,0.00,Acu-Link.com,2013-02-25 08:10:00,
2013-02-25 02:26:00,60.1,59.5,29.54,NNE,22,1.1,-999.0,98,-99.99,,,0.00,Acu-Link.com,2013-02-25 08:26:00,
2013-02-25 02:41:00,60.1,59.5,29.53,NE,45,1.6,-999.0,98,-99.99,,,0.00,Acu-Link.com,2013-02-25 08:41:00,
2013-02-25 02:56:00,60.1,59.5,29.52,ESE,112,2.2,-999.0,98,-99.99,,,0.00,Acu-Link.com,2013-02-25 08:56:00,
2013-02-25 03:17:00,60.1,59.5,29.51,ESE,112,2.7,-999.0,98,-99.99,,,0.00,Acu-Link.com,2013-02-25 09:17:00,
2013-02-25 03:33:00,60.1,59.8,29.51,ESE,112,2.2,-999.0,99,-99.99,,,0.00,Acu-Link.com,2013-02-25 09:33:00,
2013-02-25 03:48:00,60.3,60.0,29.50,WNW,292,0.0,-999.0,99,-99.99,,,0.00,Acu-Link.com,2013-02-25 09:48:00,
2013-02-25 04:03:00,60.3,60.0,29.50,ESE,112,0.0,-999.0,99,-99.99,,,0.00,Acu-Link.com,2013-02-25 10:03:00,
2013-02-25 04:18:00,60.4,60.2,29.50,North,0,0.0,-999.0,99,-99.99,,,0.00,Acu-Link.com,2013-02-25 10:18:00,
2013-02-25 04:33:00,60.4,60.2,29.50,ESE,112,1.6,-999.0,99,-99.99,,,0.00,Acu-Link.com,2013-02-25 10:33:00,
2013-02-25 04:48:00,60.4,60.2,29.50,SSE,157,0.0,-999.0,99,-99.99,,,0.00,Acu-Link.com,2013-02-25 10:48:00,
2013-02-25 05:04:00,60.6,60.3,29.50,SSW,202,0.0,-999.0,99,-99.99,,,0.00,Acu-Link.com,2013-02-25 11:04:00,
2013-02-25 05:19:00,60.8,60.5,29.51,East,90,2.7,-999.0,99,-99.99,,,0.00,Acu-Link.com,2013-02-25 11:19:00,
2013-02-25 05:34:00,60.8,60.5,29.50,East,90,0.0,-999.0,99,-99.99,,,0.00,Acu-Link.com,2013-02-25 11:34:00,
2013-02-25 05:49:00,60.8,60.5,29.51,ENE,67,1.6,-999.0,99,-99.99,,,0.00,Acu-Link.com,2013-02-25 11:49:00,
2013-02-25 06:05:00,61.0,60.7,29.52,ENE,67,0.0,-999.0,99,-99.99,,,0.00,Acu-Link.com,2013-02-25 12:05:00,
2013-02-25 06:20:00,61.0,60.7,29.51,ESE,112,2.2,-999.0,99,-99.99,,,0.00,Acu-Link.com,2013-02-25 12:20:00,
2013-02-25 06:35:00,61.3,61.1,29.51,SSE,157,2.2,-999.0,99,-99.99,,,0.00,Acu-Link.com,2013-02-25 12:35:00,
2013-02-25 06:50:00,61.7,61.4,29.51,ESE,112,2.2,-999.0,99,-99.99,,,0.00,Acu-Link.com,2013-02-25 12:50:00,
2013-02-25 07:05:00,61.9,61.6,29.52,ENE,67,2.7,-999.0,99,-99.99,,,0.00,Acu-Link.com,2013-02-25 13:05:00,
2013-02-25 07:20:00,62.1,61.8,29.52,ESE,112,2.7,-999.0,99,-99.99,,,0.00,Acu-Link.com,2013-02-25 13:20:00,
2013-02-25 07:36:00,62.2,62.0,29.52,ESE,112,3.1,-999.0,99,-99.99,,,0.00,Acu-Link.com,2013-02-25 13:36:00,
2013-02-25 07:51:00,62.8,62.5,29.52,SSE,157,3.1,-999.0,99,-99.99,,,0.00,Acu-Link.com,2013-02-25 13:51:00,
2013-02-25 08:06:00,63.3,63.0,29.52,SE,135,2.7,-999.0,99,-99.99,,,0.00,Acu-Link.com,2013-02-25 14:06:00,
2013-02-25 08:21:00,64.4,63.8,29.53,ENE,67,3.8,-999.0,98,-99.99,,,0.00,Acu-Link.com,2013-02-25 14:21:00,
2013-02-25 08:37:00,64.6,63.7,29.54,SE,135,1.6,-999.0,97,-99.99,,,0.01,Acu-Link.com,2013-02-25 14:37:00,
2013-02-25 08:52:00,64.6,63.7,29.54,SE,135,1.1,-999.0,97,-99.99,,,0.01,Acu-Link.com,2013-02-25 14:52:00,
2013-02-25 09:07:00,65.1,64.2,29.54,NE,45,1.6,-999.0,97,-99.99,,,0.01,Acu-Link.com,2013-02-25 15:07:00,
2013-02-25 09:23:00,65.5,64.3,29.54,ESE,112,4.3,-999.0,96,-99.99,,,0.01,Acu-Link.com,2013-02-25 15:23:00,
2013-02-25 09:38:00,66.2,65.0,29.54,East,90,4.3,-999.0,96,-99.99,,,0.01,Acu-Link.com,2013-02-25 15:38:00,
2013-02-25 09:53:00,66.4,64.6,29.54,ESE,112,2.7,-999.0,94,-99.99,,,0.01,Acu-Link.com,2013-02-25 15:53:00,
2013-02-25 10:08:00,66.4,64.9,29.53,ESE,112,3.8,-999.0,95,-99.99,,,0.01,Acu-Link.com,2013-02-25 16:08:00,
2013-02-25 10:23:00,66.2,64.7,29.52,SSE,157,3.8,-999.0,95,-99.99,,,0.01,Acu-Link.com,2013-02-25 16:23:00,
2013-02-25 10:39:00,67.6,66.2,29.51,ESE,112,5.1,-999.0,95,-99.99,,,0.01,Acu-Link.com,2013-02-25 16:39:00,
2013-02-25 10:54:00,68.4,66.6,29.51,ESE,112,4.7,-999.0,94,-99.99,,,0.01,Acu-Link.com,2013-02-25 16:54:00,
2013-02-25 11:09:00,68.2,66.7,29.50,ESE,112,3.8,-999.0,95,-99.99,,,0.01,Acu-Link.com,2013-02-25 17:09:00,
2013-02-25 11:24:00,68.2,66.7,29.49,SE,135,6.7,-999.0,95,-99.99,,,0.01,Acu-Link.com,2013-02-25 17:24:00,
2013-02-25 11:40:00,67.8,66.6,29.48,SE,135,3.8,-999.0,96,-99.99,,,0.01,Acu-Link.com,2013-02-25 17:40:00,
2013-02-25 11:55:00,67.5,66.6,29.46,ESE,112,5.1,-999.0,97,-99.99,,,0.06,Acu-Link.com,2013-02-25 17:55:00,
2013-02-25 12:10:00,67.6,66.8,29.46,ESE,112,6.7,-999.0,97,-99.99,,,0.06,Acu-Link.com,2013-02-25 18:10:00,
2013-02-25 12:25:00,67.6,67.1,29.43,SSE,157,4.7,-999.0,98,-99.99,,,0.06,Acu-Link.com,2013-02-25 18:25:00,
2013-02-25 12:41:00,67.1,66.5,29.42,SSE,157,3.8,-999.0,98,-99.99,,,0.06,Acu-Link.com,2013-02-25 18:41:00,
2013-02-25 12:56:00,66.6,66.3,29.40,South,180,8.3,-999.0,99,-99.99,,,0.25,Acu-Link.com,2013-02-25 18:56:00,
2013-02-25 13:11:00,64.4,62.9,29.41,SSE,157,4.3,-999.0,95,-99.99,,,0.53,Acu-Link.com,2013-02-25 19:11:00,
2013-02-25 13:26:00,65.7,64.2,29.34,South,180,2.7,-999.0,95,-99.99,,,0.54,Acu-Link.com,2013-02-25 19:26:00,
2013-02-25 13:42:00,65.5,64.3,29.33,South,180,5.1,-999.0,96,-99.99,,,0.56,Acu-Link.com,2013-02-25 19:42:00,
2013-02-25 13:57:00,66.4,65.5,29.35,ESE,112,3.8,-999.0,97,-99.99,,,0.56,Acu-Link.com,2013-02-25 19:57:00,
2013-02-25 14:12:00,66.9,66.6,29.36,ESE,112,4.3,-999.0,99,-99.99,,,0.56,Acu-Link.com,2013-02-25 20:12:00,
2013-02-25 14:28:00,67.5,67.2,29.36,South,180,6.3,-999.0,99,-99.99,,,0.56,Acu-Link.com,2013-02-25 20:28:00,
2013-02-25 14:43:00,69.4,68.5,29.33,West,270,1.6,-999.0,97,-99.99,,,0.56,Acu-Link.com,2013-02-25 20:43:00,
2013-02-25 14:58:00,69.8,68.6,29.30,SSW,202,6.7,-999.0,96,-99.99,,,0.56,Acu-Link.com,2013-02-25 20:58:00,
2013-02-25 15:14:00,69.4,68.2,29.32,South,180,7.8,-999.0,96,-99.99,,,0.56,Acu-Link.com,2013-02-25 21:14:00,
2013-02-25 15:29:00,69.3,68.7,29.32,South,180,6.7,-999.0,98,-99.99,,,0.56,Acu-Link.com,2013-02-25 21:29:00,
2013-02-25 15:44:00,69.6,68.7,29.32,SE,135,7.8,-999.0,97,-99.99,,,0.56,Acu-Link.com,2013-02-25 21:44:00,
2013-02-25 15:59:00,69.6,67.5,29.31,SE,135,14.1,-999.0,93,-99.99,,,0.56,Acu-Link.com,2013-02-25 21:59:00,
2013-02-25 16:15:00,67.8,66.0,29.31,South,180,9.4,-999.0,94,-99.99,,,0.56,Acu-Link.com,2013-02-25 22:15:00,
2013-02-25 16:30:00,68.0,66.2,29.31,SSW,202,5.1,-999.0,94,-99.99,,,0.56,Acu-Link.com,2013-02-25 22:30:00,
2013-02-25 16:45:00,65.7,63.9,29.32,WSW,247,8.3,-999.0,94,-99.99,,,0.63,Acu-Link.com,2013-02-25 22:45:00,
2013-02-25 17:01:00,66.4,64.6,29.34,SSW,202,5.8,-999.0,94,-99.99,,,0.68,Acu-Link.com,2013-02-25 23:01:00,
2013-02-25 17:16:00,68.2,65.1,29.34,SW,225,4.7,-999.0,90,-99.99,,,0.68,Acu-Link.com,2013-02-25 23:16:00,
2013-02-25 17:31:00,67.1,62.1,29.35,WSW,247,5.8,-999.0,84,-99.99,,,0.68,Acu-Link.com,2013-02-25 23:31:00,
2013-02-25 17:46:00,66.0,61.7,29.35,West,270,3.8,-999.0,86,-99.99,,,0.68,Acu-Link.com,2013-02-25 23:46:00,
2013-02-25 18:02:00,64.0,60.4,29.35,SSE,157,2.2,-999.0,88,-99.99,,,0.68,Acu-Link.com,2013-02-26 00:02:00,
2013-02-25 18:17:00,62.4,59.8,29.35,WSW,247,0.0,-999.0,91,-99.99,,,0.68,Acu-Link.com,2013-02-26 00:17:00,
2013-02-25 18:32:00,61.5,58.6,29.36,SW,225,4.3,-999.0,90,-99.99,,,0.68,Acu-Link.com,2013-02-26 00:32:00,
2013-02-25 18:48:00,62.2,53.1,29.37,WSW,247,5.8,-999.0,72,-99.99,,,0.68,Acu-Link.com,2013-02-26 00:48:00,
2013-02-25 19:03:00,59.9,52.3,29.38,South,180,4.7,-999.0,76,-99.99,,,0.68,Acu-Link.com,2013-02-26 01:03:00,
2013-02-25 19:18:00,60.8,48.5,29.37,SSW,202,8.9,-999.0,64,-99.99,,,0.68,Acu-Link.com,2013-02-26 01:18:00,
2013-02-25 19:33:00,61.3,46.4,29.40,West,270,11.4,-999.0,58,-99.99,,,0.68,Acu-Link.com,2013-02-26 01:33:00,
2013-02-25 19:49:00,59.9,45.5,29.41,West,270,7.8,-999.0,59,-99.99,,,0.68,Acu-Link.com,2013-02-26 01:49:00,
2013-02-25 20:04:00,59.0,43.8,29.42,West,270,5.1,-999.0,57,-99.99,,,0.68,Acu-Link.com,2013-02-26 02:04:00,
2013-02-25 20:19:00,58.8,39.7,29.42,NW,315,18.6,-999.0,49,-99.99,,,0.68,Acu-Link.com,2013-02-26 02:19:00,
2013-02-25 20:34:00,58.8,38.1,29.43,West,270,11.4,-999.0,46,-99.99,,,0.68,Acu-Link.com,2013-02-26 02:34:00,
2013-02-25 20:50:00,57.7,38.2,29.45,West,270,10.3,-999.0,48,-99.99,,,0.68,Acu-Link.com,2013-02-26 02:50:00,
2013-02-25 21:05:00,57.0,39.1,29.46,WNW,292,11.4,-999.0,51,-99.99,,,0.68,Acu-Link.com,2013-02-26 03:05:00,
2013-02-25 21:20:00,56.3,37.9,29.48,West,270,15.0,-999.0,50,-99.99,,,0.68,Acu-Link.com,2013-02-26 03:20:00,
2013-02-25 21:36:00,55.8,36.4,29.49,West,270,11.0,-999.0,48,-99.99,,,0.68,Acu-Link.com,2013-02-26 03:36:00,
2013-02-25 21:51:00,54.9,36.6,29.50,WNW,292,11.4,-999.0,50,-99.99,,,0.68,Acu-Link.com,2013-02-26 03:51:00,
2013-02-25 22:06:00,53.8,36.1,29.50,WSW,247,7.4,-999.0,51,-99.99,,,0.68,Acu-Link.com,2013-02-26 04:06:00,
2013-02-25 22:21:00,53.6,34.4,29.51,West,270,20.1,-999.0,48,-99.99,,,0.68,Acu-Link.com,2013-02-26 04:21:00,
2013-02-25 22:36:00,53.1,34.9,29.52,West,270,12.5,-999.0,50,-99.99,,,0.68,Acu-Link.com,2013-02-26 04:36:00,
2013-02-25 22:52:00,52.0,34.9,29.52,West,270,13.4,-999.0,52,-99.99,,,0.68,Acu-Link.com,2013-02-26 04:52:00,
2013-02-25 23:07:00,51.4,33.9,29.53,WSW,247,22.1,-999.0,51,-99.99,,,0.68,Acu-Link.com,2013-02-26 05:07:00,
2013-02-25 23:22:00,50.9,34.9,29.54,West,270,11.9,-999.0,54,-99.99,,,0.68,Acu-Link.com,2013-02-26 05:22:00,
2013-02-25 23:37:00,50.0,34.9,29.54,West,270,6.7,-999.0,56,-99.99,,,0.68,Acu-Link.com,2013-02-26 05:37:00,
2013-02-25 23:53:00,49.8,34.8,29.54,West,270,16.1,-999.0,56,-99.99,,,0.68,Acu-Link.com,2013-02-26 05:53:00,